^^
Station Historical Data
Daily Summary for January 24, 2018 Units:  Both    English   Metric
« Previous Day
Next Day »
Daily Weekly Monthly Yearly Custom
  High: Low: Average:
Temperature: TemperatureC °F /  -17.8 °C -3.6 °F /  -19.8 °C -1.1 °F /  -18.4 °C
Dew Point: DewpointC °F /  -17.8 °C -4.5 °F /  -20.3 °C -2 °F /  -18.9 °C
Humidity: Humidity% 93% 93%
Wind Speed: WindSpeedKMHmph /  0km/h - 3.3mph /  5.3km/h
Wind Gust: WindSpeedGustKMHmph /  0km/h - -
Wind- - South
Pressure: PressurehPa in /  0 hPa 998.5 in /  33809.2 hPa -
Precipitation: 11.7 in /  297.18 mm    
Historical Graphs
 
 
Tabular Data for January 24, 2018
Time Temperature Dew Point Pressure Wind Wind Speed Wind Gust Humidity Rainfall Rate (Hourly) solar Conditions
TemperatureC °F /  -17.8 °C DewpointC °F /  -17.8 °C PressurehPain /  0hPa Calm     Humidity% HourlyPrecipMMin /  0mm SoftwareType W/m2 Conditions
00:04 -1.1 °F /  -18.4 °C -1.9 °F /  -18.8 °C 1016.8in /  34428.8hPa SSW 0.2mph /  0.3km/h 13.0mph /  20.9km/h 94% 0.3in /  7.62mm WeatherDisplay:10.37 W/m2 RA
00:09 -1.1 °F /  -18.4 °C -1.9 °F /  -18.8 °C 1016.8in /  34428.8hPa ESE 0.5mph /  0.8km/h 3.7mph /  6km/h 94% 0.3in /  7.62mm WeatherDisplay:10.37 W/m2 RA
00:14 -1.1 °F /  -18.4 °C -1.9 °F /  -18.8 °C 1016.8in /  34428.8hPa WNW 1.6mph /  2.6km/h 5.6mph /  9km/h 94% 0.3in /  7.62mm WeatherDisplay:10.37 W/m2 FEW
00:19 -1.1 °F /  -18.4 °C -1.9 °F /  -18.8 °C 1016.8in /  34428.8hPa SSE 4.8mph /  7.7km/h 11.1mph /  17.9km/h 94% 0.3in /  7.62mm WeatherDisplay:10.37 W/m2 FEW
00:24 -1.1 °F /  -18.4 °C -1.9 °F /  -18.8 °C 1016.5in /  34418.7hPa SSE 0.8mph /  1.3km/h 3.7mph /  6km/h 94% 0.3in /  7.62mm WeatherDisplay:10.37 W/m2 FEW
00:29 -1.1 °F /  -18.4 °C -1.9 °F /  -18.8 °C 1016.5in /  34418.7hPa East 2.4mph /  3.9km/h 11.1mph /  17.9km/h 94% 0.3in /  7.62mm WeatherDisplay:10.37 W/m2 FEW
00:34 -1.1 °F /  -18.4 °C -1.9 °F /  -18.8 °C 1016.5in /  34418.7hPa Calm     94% 0.3in /  7.62mm WeatherDisplay:10.37 W/m2 FEW
00:40 -1.0 °F /  -18.3 °C -1.8 °F /  -18.8 °C 1016.5in /  34418.7hPa SW 3.1mph /  5km/h 7.4mph /  11.9km/h 94% 0.3in /  7.62mm WeatherDisplay:10.37 W/m2 FEW
00:45 -1.0 °F /  -18.3 °C -1.8 °F /  -18.8 °C 1016.5in /  34418.7hPa SE 4.2mph /  6.8km/h 8.0mph /  12.9km/h 94% 0.3in /  7.62mm WeatherDisplay:10.37 W/m2 FEW
00:50 -1.0 °F /  -18.3 °C -1.8 °F /  -18.8 °C 1016.1in /  34405.1hPa WSW 1.6mph /  2.6km/h 13.0mph /  20.9km/h 94% 0.3in /  7.62mm WeatherDisplay:10.37 W/m2 FEW
00:55 -1.0 °F /  -18.3 °C -1.8 °F /  -18.8 °C 1016.1in /  34405.1hPa SSW 1.0mph /  1.6km/h 5.6mph /  9km/h 94% 0.3in /  7.62mm WeatherDisplay:10.37 W/m2 FEW
01:00 -0.9 °F /  -18.3 °C -1.8 °F /  -18.8 °C 1016.1in /  34405.1hPa ESE 2.6mph /  4.2km/h 3.7mph /  6km/h 94% 0.3in /  7.62mm WeatherDisplay:10.37 W/m2 RA
01:10 -0.9 °F /  -18.3 °C -1.8 °F /  -18.8 °C 1016.1in /  34405.1hPa East 1.3mph /  2.1km/h 5.6mph /  9km/h 94% 0.3in /  7.62mm WeatherDisplay:10.37 W/m2 FEW
01:15 -1.0 °F /  -18.3 °C -1.8 °F /  -18.8 °C 1016.1in /  34405.1hPa SSE 1.6mph /  2.6km/h 6.4mph /  10.3km/h 94% 0.3in /  7.62mm WeatherDisplay:10.37 W/m2 FEW
01:25 -1.0 °F /  -18.3 °C -1.8 °F /  -18.8 °C 1016.1in /  34405.1hPa Calm     94% 0.3in /  7.62mm WeatherDisplay:10.37 W/m2 FEW
01:30 -1.1 °F /  -18.4 °C -1.9 °F /  -18.8 °C 1015.8in /  34395hPa SSW 4.8mph /  7.7km/h 9.3mph /  15km/h 94% 0.3in /  7.62mm WeatherDisplay:10.37 W/m2 FEW
01:35 -1.1 °F /  -18.4 °C -1.9 °F /  -18.8 °C 1015.8in /  34395hPa Calm     94% 0.3in /  7.62mm WeatherDisplay:10.37 W/m2 FEW
01:45 -1.1 °F /  -18.4 °C -2.1 °F /  -18.9 °C 1015.8in /  34395hPa SW 3.4mph /  5.5km/h 20.4mph /  32.8km/h 93% 0.3in /  7.62mm WeatherDisplay:10.37 W/m2 FEW
01:50 -1.1 °F /  -18.4 °C -2.1 °F /  -18.9 °C 1015.8in /  34395hPa South 4.2mph /  6.8km/h 11.1mph /  17.9km/h 93% 0.5in /  12.7mm WeatherDisplay:10.37 W/m2 RA
01:55 -1.1 °F /  -18.4 °C -2.1 °F /  -18.9 °C 1015.5in /  34384.8hPa NW 3.9mph /  6.3km/h 11.1mph /  17.9km/h 93% 0.3in /  7.62mm WeatherDisplay:10.37 W/m2 RA
02:05 -1.1 °F /  -18.4 °C -2.1 °F /  -18.9 °C 1015.5in /  34384.8hPa West 2.1mph /  3.4km/h 13.0mph /  20.9km/h 93% 0.3in /  7.62mm WeatherDisplay:10.37 W/m2 FEW
02:10 -1.2 °F /  -18.4 °C -2.2 °F /  -19 °C 1015.5in /  34384.8hPa SSW 2.3mph /  3.7km/h 14.8mph /  23.8km/h 93% 0.3in /  7.62mm WeatherDisplay:10.37 W/m2 FEW
02:15 -1.2 °F /  -18.4 °C -2.0 °F /  -18.9 °C 1015.5in /  34384.8hPa SSE 3.2mph /  5.1km/h 11.1mph /  17.9km/h 94% 0.3in /  7.62mm WeatherDisplay:10.37 W/m2 FEW
02:20 -1.2 °F /  -18.4 °C -2.2 °F /  -19 °C 1015.1in /  34371.3hPa SSW 1.1mph /  1.8km/h 5.6mph /  9km/h 93% 0.5in /  12.7mm WeatherDisplay:10.37 W/m2 RA
02:25 -1.2 °F /  -18.4 °C -2.2 °F /  -19 °C 1015.1in /  34371.3hPa North 4.2mph /  6.8km/h 11.1mph /  17.9km/h 93% 0.5in /  12.7mm WeatherDisplay:10.37 W/m2 FEW
02:30 -1.2 °F /  -18.4 °C -2.2 °F /  -19 °C 1015.1in /  34371.3hPa SSW 0.6mph /  1km/h 5.6mph /  9km/h 93% 0.5in /  12.7mm WeatherDisplay:10.37 W/m2 FEW
02:35 -1.2 °F /  -18.4 °C -2.0 °F /  -18.9 °C 1014.8in /  34361.1hPa SE 3.7mph /  6km/h 5.6mph /  9km/h 94% 0.5in /  12.7mm WeatherDisplay:10.37 W/m2 FEW
02:40 -1.2 °F /  -18.4 °C -2.0 °F /  -18.9 °C 1014.8in /  34361.1hPa South 3.2mph /  5.1km/h 5.6mph /  9km/h 94% 0.5in /  12.7mm WeatherDisplay:10.37 W/m2 FEW
02:45 -1.2 °F /  -18.4 °C -2.1 °F /  -18.9 °C 1014.8in /  34361.1hPa South 1.3mph /  2.1km/h 14.8mph /  23.8km/h 94% 0.5in /  12.7mm WeatherDisplay:10.37 W/m2 RA
02:55 -1.3 °F /  -18.5 °C -2.1 °F /  -18.9 °C 1014.8in /  34361.1hPa South 0.3mph /  0.5km/h 3.7mph /  6km/h 94% 0.5in /  12.7mm WeatherDisplay:10.37 W/m2 FEW
03:05 -1.4 °F /  -18.6 °C -2.4 °F /  -19.1 °C 1014.4in /  34347.6hPa ESE 9.0mph /  14.5km/h 18.5mph /  29.8km/h 93% 0.5in /  12.7mm WeatherDisplay:10.37 W/m2 FEW
03:10 -1.4 °F /  -18.6 °C -2.2 °F /  -19 °C 1014.4in /  34347.6hPa SSW 1.6mph /  2.6km/h 11.1mph /  17.9km/h 94% 0.5in /  12.7mm WeatherDisplay:10.37 W/m2 FEW
03:15 -1.4 °F /  -18.6 °C -2.3 °F /  -19.1 °C 1014.4in /  34347.6hPa SSW 3.7mph /  6km/h 24.1mph /  38.8km/h 94% 0.5in /  12.7mm WeatherDisplay:10.37 W/m2 FEW
03:20 -1.5 °F /  -18.6 °C -2.3 °F /  -19.1 °C 1014.1in /  34337.4hPa SSW 8.4mph /  13.5km/h 18.5mph /  29.8km/h 94% 0.5in /  12.7mm WeatherDisplay:10.37 W/m2 RA
03:25 -1.6 °F /  -18.7 °C -2.4 °F /  -19.1 °C 1014.1in /  34337.4hPa South 0.8mph /  1.3km/h 14.5mph /  23.3km/h 94% 0.5in /  12.7mm WeatherDisplay:10.37 W/m2 RA
03:30 -1.6 °F /  -18.7 °C -2.4 °F /  -19.1 °C 1014.1in /  34337.4hPa Calm   9.3mph /  15km/h 94% 0.5in /  12.7mm WeatherDisplay:10.37 W/m2 FEW
03:35 -1.7 °F /  -18.7 °C -2.7 °F /  -19.3 °C 1014.1in /  34337.4hPa SE 2.6mph /  4.2km/h 7.4mph /  11.9km/h 93% 0.5in /  12.7mm WeatherDisplay:10.37 W/m2 FEW
03:40 -1.8 °F /  -18.8 °C -2.8 °F /  -19.3 °C 1013.8in /  34327.3hPa SE 4.7mph /  7.6km/h 14.8mph /  23.8km/h 93% 0.5in /  12.7mm WeatherDisplay:10.37 W/m2 FEW
03:50 -1.8 °F /  -18.8 °C -2.8 °F /  -19.3 °C 1013.8in /  34327.3hPa Calm   5.6mph /  9km/h 93% 0.3in /  7.62mm WeatherDisplay:10.37 W/m2 FEW
03:55 -1.8 °F /  -18.8 °C -2.8 °F /  -19.3 °C 1013.8in /  34327.3hPa South 1.1mph /  1.8km/h 5.6mph /  9km/h 93% 0.3in /  7.62mm WeatherDisplay:10.37 W/m2 FEW
04:05 -1.9 °F /  -18.8 °C -2.9 °F /  -19.4 °C 1013.4in /  34313.7hPa SSW 3.2mph /  5.1km/h 18.5mph /  29.8km/h 93% 0.3in /  7.62mm WeatherDisplay:10.37 W/m2 FEW
04:10 -1.9 °F /  -18.8 °C -2.9 °F /  -19.4 °C 1013.4in /  34313.7hPa SW 3.2mph /  5.1km/h 11.1mph /  17.9km/h 93% 0.3in /  7.62mm WeatherDisplay:10.37 W/m2 FEW
04:15 -1.9 °F /  -18.8 °C -2.9 °F /  -19.4 °C 1013.4in /  34313.7hPa Calm   5.6mph /  9km/h 93% 0.3in /  7.62mm WeatherDisplay:10.37 W/m2 FEW
04:20 -2.0 °F /  -18.9 °C -3.0 °F /  -19.4 °C 1013.4in /  34313.7hPa SSE 7.2mph /  11.6km/h 13.0mph /  20.9km/h 93% 0.0in /  0mm WeatherDisplay:10.37 W/m2 FEW
04:25 -2.1 °F /  -18.9 °C -3.1 °F /  -19.5 °C 1013.1in /  34303.6hPa Calm     93% 0.0in /  0mm WeatherDisplay:10.37 W/m2 FEW
04:30 -2.1 °F /  -18.9 °C -3.1 °F /  -19.5 °C 1013.1in /  34303.6hPa SE 3.1mph /  5km/h 13.0mph /  20.9km/h 93% 0.0in /  0mm WeatherDisplay:10.37 W/m2 FEW
04:35 -2.1 °F /  -18.9 °C -3.1 °F /  -19.5 °C 1013.1in /  34303.6hPa Calm     93% 0.3in /  7.62mm WeatherDisplay:10.37 W/m2 RA
04:40 -2.1 °F /  -18.9 °C -3.1 °F /  -19.5 °C 1013.1in /  34303.6hPa SSE 1.4mph /  2.3km/h 5.6mph /  9km/h 93% 0.3in /  7.62mm WeatherDisplay:10.37 W/m2 FEW
04:45 -2.1 °F /  -18.9 °C -3.1 °F /  -19.5 °C 1012.8in /  34293.4hPa Calm     93% 0.3in /  7.62mm WeatherDisplay:10.37 W/m2 FEW
04:50 -2.2 °F /  -19 °C -3.2 °F /  -19.6 °C 1012.8in /  34293.4hPa SW 3.1mph /  5km/h 9.3mph /  15km/h 93% 0.3in /  7.62mm WeatherDisplay:10.37 W/m2 FEW
04:55 -2.2 °F /  -19 °C -3.2 °F /  -19.6 °C 1012.8in /  34293.4hPa SSW 1.9mph /  3.1km/h 6.4mph /  10.3km/h 93% 0.3in /  7.62mm WeatherDisplay:10.37 W/m2 FEW
05:00 -2.2 °F /  -19 °C -3.2 °F /  -19.6 °C 1012.8in /  34293.4hPa SSW 10.8mph /  17.4km/h 10.8mph /  17.4km/h 93% 0.5in /  12.7mm WeatherDisplay:10.37 W/m2 RA
05:05 -2.2 °F /  -19 °C -3.2 °F /  -19.6 °C 1012.8in /  34293.4hPa SSE 6.3mph /  10.1km/h 18.5mph /  29.8km/h 93% 0.5in /  12.7mm WeatherDisplay:10.37 W/m2 RA
05:10 -2.3 °F /  -19.1 °C -3.3 °F /  -19.6 °C 1012.4in /  34279.9hPa SSE 6.1mph /  9.8km/h 9.3mph /  15km/h 93% 0.5in /  12.7mm WeatherDisplay:10.37 W/m2 FEW
05:15 -2.3 °F /  -19.1 °C -3.3 °F /  -19.6 °C 1012.4in /  34279.9hPa SE 0.8mph /  1.3km/h 5.6mph /  9km/h 93% 0.5in /  12.7mm WeatherDisplay:10.37 W/m2 FEW
05:20 -2.4 °F /  -19.1 °C -3.4 °F /  -19.7 °C 1012.4in /  34279.9hPa SSW 6.0mph /  9.7km/h 6.0mph /  9.7km/h 93% 0.5in /  12.7mm WeatherDisplay:10.37 W/m2 RA
05:25 -2.5 °F /  -19.2 °C -3.5 °F /  -19.7 °C 1012.4in /  34279.9hPa SSW 0.5mph /  0.8km/h 3.7mph /  6km/h 93% 0.5in /  12.7mm WeatherDisplay:10.37 W/m2 FEW
05:30 -2.6 °F /  -19.2 °C -3.6 °F /  -19.8 °C 1012.1in /  34269.7hPa SSE 4.7mph /  7.6km/h 20.4mph /  32.8km/h 93% 0.5in /  12.7mm WeatherDisplay:10.37 W/m2 FEW
05:35 -2.6 °F /  -19.2 °C -3.6 °F /  -19.8 °C 1012.1in /  34269.7hPa SW 5.5mph /  8.9km/h 11.1mph /  17.9km/h 93% 0.5in /  12.7mm WeatherDisplay:10.37 W/m2 FEW
05:40 -2.7 °F /  -19.3 °C -3.7 °F /  -19.8 °C 1012.1in /  34269.7hPa SE 3.2mph /  5.1km/h 17.7mph /  28.5km/h 93% 0.5in /  12.7mm WeatherDisplay:10.37 W/m2 RA
05:45 -2.7 °F /  -19.3 °C -3.7 °F /  -19.8 °C 1012.1in /  34269.7hPa SSE 5.6mph /  9km/h 18.5mph /  29.8km/h 93% 0.5in /  12.7mm WeatherDisplay:10.37 W/m2 RA
05:50 -2.7 °F /  -19.3 °C -3.7 °F /  -19.8 °C 1011.7in /  34256.2hPa SE 5.8mph /  9.3km/h 16.7mph /  26.9km/h 93% 0.5in /  12.7mm WeatherDisplay:10.37 W/m2 FEW
05:55 -2.8 °F /  -19.3 °C -3.8 °F /  -19.9 °C 1011.7in /  34256.2hPa SE 4.0mph /  6.4km/h 9.3mph /  15km/h 93% 0.5in /  12.7mm WeatherDisplay:10.37 W/m2 FEW
06:00 -2.8 °F /  -19.3 °C -3.8 °F /  -19.9 °C 1011.4in /  34246hPa SSE 6.0mph /  9.7km/h 13.0mph /  20.9km/h 93% 0.5in /  12.7mm WeatherDisplay:10.37 W/m2 FEW
06:05 -2.9 °F /  -19.4 °C -3.9 °F /  -19.9 °C 1011.4in /  34246hPa SSW 3.7mph /  6km/h 11.1mph /  17.9km/h 93% 0.5in /  12.7mm WeatherDisplay:10.37 W/m2 RA
06:10 -2.9 °F /  -19.4 °C -3.9 °F /  -19.9 °C 1011.4in /  34246hPa South 5.5mph /  8.9km/h 16.7mph /  26.9km/h 93% 0.5in /  12.7mm WeatherDisplay:10.37 W/m2 RA
06:25 -2.9 °F /  -19.4 °C -3.9 °F /  -19.9 °C 1011.1in /  34235.8hPa SSE 1.8mph /  2.9km/h 13.0mph /  20.9km/h 93% 0.5in /  12.7mm WeatherDisplay:10.37 W/m2 RA
06:35 -3.0 °F /  -19.4 °C -4.0 °F /  -20 °C 1010.7in /  34222.3hPa SW 2.9mph /  4.7km/h 13.0mph /  20.9km/h 93% 0.5in /  12.7mm WeatherDisplay:10.37 W/m2 FEW
06:40 -3.0 °F /  -19.4 °C -4.0 °F /  -20 °C 1010.7in /  34222.3hPa South 3.4mph /  5.5km/h 3.7mph /  6km/h 93% 0.5in /  12.7mm WeatherDisplay:10.37 W/m2 FEW
06:45 -3.0 °F /  -19.4 °C -4.0 °F /  -20 °C 1010.7in /  34222.3hPa South 5.5mph /  8.9km/h 5.6mph /  9km/h 93% 0.5in /  12.7mm WeatherDisplay:10.37 W/m2 RA
06:50 -3.1 °F /  -19.5 °C -4.0 °F /  -20 °C 1010.4in /  34212.1hPa SSE 6.8mph /  10.9km/h 16.7mph /  26.9km/h 93% 0.5in /  12.7mm WeatherDisplay:10.37 W/m2 RA
07:00 -3.1 °F /  -19.5 °C -4.0 °F /  -20 °C 1010.4in /  34212.1hPa South 5.5mph /  8.9km/h 14.8mph /  23.8km/h 93% 0.8in /  20.32mm WeatherDisplay:10.37 W/m2 RA
07:05 -3.1 °F /  -19.5 °C -4.0 °F /  -20 °C 1010.4in /  34212.1hPa SE 4.3mph /  6.9km/h 7.4mph /  11.9km/h 93% 0.5in /  12.7mm WeatherDisplay:10.37 W/m2 RA
07:10 -3.1 °F /  -19.5 °C -4.0 °F /  -20 °C 1010.0in /  34198.6hPa SSE 1.6mph /  2.6km/h 5.6mph /  9km/h 93% 0.8in /  20.32mm WeatherDisplay:10.37 W/m2 RA
07:15 -3.1 °F /  -19.5 °C -4.0 °F /  -20 °C 1010.0in /  34198.6hPa South 2.4mph /  3.9km/h 11.1mph /  17.9km/h 93% 0.8in /  20.32mm WeatherDisplay:10.37 W/m2 RA
07:20 -3.1 °F /  -19.5 °C -4.0 °F /  -20 °C 1010.0in /  34198.6hPa South 0.3mph /  0.5km/h 11.1mph /  17.9km/h 93% 0.8in /  20.32mm WeatherDisplay:10.37 W/m2 FEW
07:25 -3.1 °F /  -19.5 °C -4.1 °F /  -20.1 °C 1010.0in /  34198.6hPa SW 4.2mph /  6.8km/h 9.3mph /  15km/h 93% 0.5in /  12.7mm WeatherDisplay:10.37 W/m2 FEW
07:30 -3.1 °F /  -19.5 °C -4.1 °F /  -20.1 °C 1009.7in /  34188.4hPa SSE 6.9mph /  11.1km/h 11.3mph /  18.2km/h 93% 0.8in /  20.32mm WeatherDisplay:10.37 W/m2 RA
07:35 -3.1 °F /  -19.5 °C -4.1 °F /  -20.1 °C 1009.7in /  34188.4hPa SE 1.6mph /  2.6km/h 7.4mph /  11.9km/h 93% 0.8in /  20.32mm WeatherDisplay:10.37 W/m2 RA
07:40 -3.2 °F /  -19.6 °C -4.0 °F /  -20 °C 1009.4in /  34178.3hPa SSE 2.1mph /  3.4km/h 7.4mph /  11.9km/h 94% 0.8in /  20.32mm WeatherDisplay:10.37 W/m2 FEW
07:45 -3.2 °F /  -19.6 °C -4.0 °F /  -20 °C 1009.4in /  34178.3hPa SSE 3.2mph /  5.1km/h 14.8mph /  23.8km/h 94% 0.5in /  12.7mm WeatherDisplay:10.37 W/m2 FEW
07:50 -3.2 °F /  -19.6 °C -4.1 °F /  -20.1 °C 1009.4in /  34178.3hPa South 2.9mph /  4.7km/h 9.3mph /  15km/h 94% 0.8in /  20.32mm WeatherDisplay:10.37 W/m2 RA
07:55 -3.3 °F /  -19.6 °C -4.1 °F /  -20.1 °C 1009.0in /  34164.7hPa South 0.3mph /  0.5km/h 3.7mph /  6km/h 94% 0.8in /  20.32mm WeatherDisplay:10.37 W/m2 RA
08:00 -3.3 °F /  -19.6 °C -4.1 °F /  -20.1 °C 1009.0in /  34164.7hPa SSE 4.2mph /  6.8km/h 16.7mph /  26.9km/h 94% 0.5in /  12.7mm WeatherDisplay:10.37 W/m2 FEW
08:05 -3.3 °F /  -19.6 °C -4.3 °F /  -20.2 °C 1009.0in /  34164.7hPa Calm   1.9mph /  3.1km/h 93% 0.5in /  12.7mm WeatherDisplay:10.37 W/m2 FEW
08:10 -3.3 °F /  -19.6 °C -4.3 °F /  -20.2 °C 1009.0in /  34164.7hPa South 2.3mph /  3.7km/h 13.0mph /  20.9km/h 93% 0.5in /  12.7mm WeatherDisplay:10.37 W/m2 RA
08:15 -3.3 °F /  -19.6 °C -4.2 °F /  -20.1 °C 1008.7in /  34154.6hPa SE 4.7mph /  7.6km/h 9.7mph /  15.6km/h 94% 0.5in /  12.7mm WeatherDisplay:10.37 W/m2 RA
08:20 -3.4 °F /  -19.7 °C -4.3 °F /  -20.2 °C 1008.7in /  34154.6hPa South 1.1mph /  1.8km/h 11.3mph /  18.2km/h 94% 0.5in /  12.7mm WeatherDisplay:10.37 W/m2 FEW
08:25 -3.4 °F /  -19.7 °C -4.3 °F /  -20.2 °C 1008.7in /  34154.6hPa SE 4.8mph /  7.7km/h 7.4mph /  11.9km/h 94% 0.5in /  12.7mm WeatherDisplay:10.37 W/m2 FEW
08:30 -3.4 °F /  -19.7 °C -4.3 °F /  -20.2 °C 1008.4in /  34144.4hPa SSE 4.5mph /  7.2km/h 5.6mph /  9km/h 94% 0.5in /  12.7mm WeatherDisplay:10.37 W/m2 RA
08:40 -3.4 °F /  -19.7 °C -4.3 °F /  -20.2 °C 1008.4in /  34144.4hPa SSE 5.1mph /  8.2km/h 11.1mph /  17.9km/h 94% 0.5in /  12.7mm WeatherDisplay:10.37 W/m2 FEW
08:45 -3.5 °F /  -19.7 °C -4.3 °F /  -20.2 °C 1008.0in /  34130.9hPa SE 4.3mph /  6.9km/h 11.1mph /  17.9km/h 94% 0.5in /  12.7mm WeatherDisplay:10.37 W/m2 FEW
08:55 -3.5 °F /  -19.7 °C -4.3 °F /  -20.2 °C 1008.0in /  34130.9hPa SE 2.1mph /  3.4km/h 11.1mph /  17.9km/h 94% 0.5in /  12.7mm WeatherDisplay:10.37 W/m2 FEW
09:00 -3.5 °F /  -19.7 °C -4.3 °F /  -20.2 °C 1008.0in /  34130.9hPa SSE 6.4mph /  10.3km/h 22.2mph /  35.7km/h 94% 0.5in /  12.7mm WeatherDisplay:10.37 W/m2 RA
09:05 -3.5 °F /  -19.7 °C -4.3 °F /  -20.2 °C 1008.0in /  34130.9hPa SSE 2.9mph /  4.7km/h 11.1mph /  17.9km/h 94% 0.5in /  12.7mm WeatherDisplay:10.37 W/m2 RA
09:10 -3.5 °F /  -19.7 °C -4.3 °F /  -20.2 °C 1008.0in /  34130.9hPa SW 4.7mph /  7.6km/h 9.3mph /  15km/h 94% 0.5in /  12.7mm WeatherDisplay:10.37 W/m2 FEW
09:15 -3.6 °F /  -19.8 °C -4.4 °F /  -20.2 °C 1007.7in /  34120.7hPa SSE 7.2mph /  11.6km/h 16.7mph /  26.9km/h 94% 0.5in /  12.7mm WeatherDisplay:10.37 W/m2 FEW
09:25 -3.6 °F /  -19.8 °C -4.5 °F /  -20.3 °C 1007.7in /  34120.7hPa South 4.5mph /  7.2km/h 18.5mph /  29.8km/h 93% 0.5in /  12.7mm WeatherDisplay:10.37 W/m2 FEW
09:30 -3.6 °F /  -19.8 °C -4.5 °F /  -20.3 °C 1007.3in /  34107.2hPa South 8.7mph /  14km/h 13.0mph /  20.9km/h 93% 0.5in /  12.7mm WeatherDisplay:10.37 W/m2 RA
09:35 -3.6 °F /  -19.8 °C -4.5 °F /  -20.3 °C 1007.3in /  34107.2hPa South 6.6mph /  10.6km/h 13.0mph /  20.9km/h 93% 0.5in /  12.7mm WeatherDisplay:10.37 W/m2 RA
09:40 -3.5 °F /  -19.7 °C -4.3 °F /  -20.2 °C 1007.3in /  34107.2hPa ESE 6.3mph /  10.1km/h 13.0mph /  20.9km/h 94% 0.5in /  12.7mm WeatherDisplay:10.37 W/m2 FEW
09:50 -3.5 °F /  -19.7 °C -4.3 °F /  -20.2 °C 1007.0in /  34097hPa SSE 6.8mph /  10.9km/h 20.4mph /  32.8km/h 94% 0.8in /  20.32mm WeatherDisplay:10.37 W/m2 RA
09:55 -3.4 °F /  -19.7 °C -4.3 °F /  -20.2 °C 1007.0in /  34097hPa SSW 3.7mph /  6km/h 7.4mph /  11.9km/h 94% 0.8in /  20.32mm WeatherDisplay:10.37 W/m2 RA
10:00 -3.4 °F /  -19.7 °C -4.3 °F /  -20.2 °C 1007.0in /  34097hPa East 6.6mph /  10.6km/h 11.1mph /  17.9km/h 94% 0.8in /  20.32mm WeatherDisplay:10.37 W/m2 RA
10:05 -3.4 °F /  -19.7 °C -4.3 °F /  -20.2 °C 1006.7in /  34086.9hPa South 2.1mph /  3.4km/h 6.4mph /  10.3km/h 94% 0.8in /  20.32mm WeatherDisplay:10.37 W/m2 RA
10:10 -3.4 °F /  -19.7 °C -4.3 °F /  -20.2 °C 1006.7in /  34086.9hPa SSE 7.1mph /  11.4km/h 18.5mph /  29.8km/h 94% 1.0in /  25.4mm WeatherDisplay:10.37 W/m2 RA
10:15 -3.4 °F /  -19.7 °C -4.3 °F /  -20.2 °C 1006.7in /  34086.9hPa SSE 3.4mph /  5.5km/h 11.3mph /  18.2km/h 94% 1.0in /  25.4mm WeatherDisplay:10.37 W/m2 RA
10:20 -3.4 °F /  -19.7 °C -4.3 °F /  -20.2 °C 1006.3in /  34073.3hPa SE 4.2mph /  6.8km/h 7.4mph /  11.9km/h 94% 1.3in /  33.02mm WeatherDisplay:10.37 W/m2 RA
10:30 -3.3 °F /  -19.6 °C -4.2 °F /  -20.1 °C 1006.3in /  34073.3hPa SSE 3.9mph /  6.3km/h 18.5mph /  29.8km/h 94% 1.3in /  33.02mm WeatherDisplay:10.37 W/m2 RA
10:35 -3.3 °F /  -19.6 °C -4.2 °F /  -20.1 °C 1006.0in /  34063.2hPa East 4.3mph /  6.9km/h 11.3mph /  18.2km/h 94% 1.5in /  38.1mm WeatherDisplay:10.37 W/m2 RA
10:40 -3.3 °F /  -19.6 °C -4.2 °F /  -20.1 °C 1006.0in /  34063.2hPa SSW 4.0mph /  6.4km/h 14.8mph /  23.8km/h 94% 1.5in /  38.1mm WeatherDisplay:10.37 W/m2 RA
10:45 -3.3 °F /  -19.6 °C -4.2 °F /  -20.1 °C 1006.0in /  34063.2hPa SSE 4.0mph /  6.4km/h 16.1mph /  25.9km/h 94% 1.5in /  38.1mm WeatherDisplay:10.37 W/m2 RA
10:50 -3.3 °F /  -19.6 °C -4.2 °F /  -20.1 °C 1005.6in /  34049.6hPa SSE 2.6mph /  4.2km/h 5.6mph /  9km/h 94% 1.5in /  38.1mm WeatherDisplay:10.37 W/m2 RA
10:55 -3.3 °F /  -19.6 °C -4.1 °F /  -20.1 °C 1005.6in /  34049.6hPa SSE 1.6mph /  2.6km/h   94% 1.5in /  38.1mm WeatherDisplay:10.37 W/m2 RA
11:00 -3.2 °F /  -19.6 °C -4.1 °F /  -20.1 °C 1005.6in /  34049.6hPa South 4.3mph /  6.9km/h 13.0mph /  20.9km/h 94% 1.5in /  38.1mm WeatherDisplay:10.37 W/m2 RA
11:05 -3.2 °F /  -19.6 °C -4.1 °F /  -20.1 °C 1005.6in /  34049.6hPa WSW 3.5mph /  5.6km/h 5.6mph /  9km/h 94% 1.5in /  38.1mm WeatherDisplay:10.37 W/m2 RA
11:10 -3.2 °F /  -19.6 °C -4.1 °F /  -20.1 °C 1005.6in /  34049.6hPa SSE 1.3mph /  2.1km/h 13.0mph /  20.9km/h 94% 1.5in /  38.1mm WeatherDisplay:10.37 W/m2 RA
11:15 -3.2 °F /  -19.6 °C -4.1 °F /  -20.1 °C 1005.6in /  34049.6hPa South 5.6mph /  9km/h 9.3mph /  15km/h 94% 1.5in /  38.1mm WeatherDisplay:10.37 W/m2 RA
11:20 -3.2 °F /  -19.6 °C -4.0 °F /  -20 °C 1005.6in /  34049.6hPa SSE 5.5mph /  8.9km/h 11.1mph /  17.9km/h 94% 1.5in /  38.1mm WeatherDisplay:10.37 W/m2 RA
11:25 -3.2 °F /  -19.6 °C -4.0 °F /  -20 °C 1005.6in /  34049.6hPa SE 3.1mph /  5km/h 5.6mph /  9km/h 94% 1.3in /  33.02mm WeatherDisplay:10.37 W/m2 FEW
11:30 -3.2 °F /  -19.6 °C -4.0 °F /  -20 °C 1005.0in /  34029.3hPa South 6.6mph /  10.6km/h 14.8mph /  23.8km/h 94% 1.3in /  33.02mm WeatherDisplay:10.37 W/m2 FEW
11:35 -3.2 °F /  -19.6 °C -4.0 °F /  -20 °C 1005.3in /  34039.5hPa SE 6.1mph /  9.8km/h 19.3mph /  31.1km/h 94% 1.0in /  25.4mm WeatherDisplay:10.37 W/m2 FEW
11:40 -3.1 °F /  -19.5 °C -3.9 °F /  -19.9 °C 1005.0in /  34029.3hPa SSE 3.9mph /  6.3km/h 13.0mph /  20.9km/h 94% 0.8in /  20.32mm WeatherDisplay:10.37 W/m2 FEW
11:45 -3.1 °F /  -19.5 °C -3.9 °F /  -19.9 °C 1005.0in /  34029.3hPa SSE 4.3mph /  6.9km/h 5.6mph /  9km/h 94% 0.8in /  20.32mm WeatherDisplay:10.37 W/m2 FEW
11:50 -3.1 °F /  -19.5 °C -3.9 °F /  -19.9 °C 1005.0in /  34029.3hPa South 5.0mph /  8km/h 14.8mph /  23.8km/h 94% 0.8in /  20.32mm WeatherDisplay:10.37 W/m2 RA
11:55 -3.0 °F /  -19.4 °C -3.8 °F /  -19.9 °C 1005.0in /  34029.3hPa Calm     94% 0.8in /  20.32mm WeatherDisplay:10.37 W/m2 RA
12:00 -3.0 °F /  -19.4 °C -3.8 °F /  -19.9 °C 1004.6in /  34015.8hPa SSE 8.2mph /  13.2km/h 18.5mph /  29.8km/h 94% 1.0in /  25.4mm WeatherDisplay:10.37 W/m2 RA
12:05 -3.0 °F /  -19.4 °C -3.8 °F /  -19.9 °C 1004.6in /  34015.8hPa South 2.3mph /  3.7km/h 7.4mph /  11.9km/h 94% 1.0in /  25.4mm WeatherDisplay:10.37 W/m2 RA
12:10 -3.0 °F /  -19.4 °C -3.8 °F /  -19.9 °C 1004.6in /  34015.8hPa SSE 5.1mph /  8.2km/h 16.7mph /  26.9km/h 94% 1.0in /  25.4mm WeatherDisplay:10.37 W/m2 RA
12:15 -2.9 °F /  -19.4 °C -3.8 °F /  -19.9 °C 1004.6in /  34015.8hPa SE 5.1mph /  8.2km/h 7.4mph /  11.9km/h 94% 1.0in /  25.4mm WeatherDisplay:10.37 W/m2 RA
12:20 -2.9 °F /  -19.4 °C -3.8 °F /  -19.9 °C 1004.3in /  34005.6hPa SE 2.3mph /  3.7km/h 6.4mph /  10.3km/h 94% 1.0in /  25.4mm WeatherDisplay:10.37 W/m2 RA
12:25 -2.9 °F /  -19.4 °C -3.8 °F /  -19.9 °C 1004.3in /  34005.6hPa SE 0.8mph /  1.3km/h 13.0mph /  20.9km/h 94% 1.3in /  33.02mm WeatherDisplay:10.37 W/m2 RA
12:30 -2.9 °F /  -19.4 °C -3.7 °F /  -19.8 °C 1004.3in /  34005.6hPa SSE 2.6mph /  4.2km/h 18.5mph /  29.8km/h 94% 1.3in /  33.02mm WeatherDisplay:10.37 W/m2 RA
12:35 -2.9 °F /  -19.4 °C -3.7 °F /  -19.8 °C 1004.3in /  34005.6hPa South 7.7mph /  12.4km/h 9.3mph /  15km/h 94% 1.5in /  38.1mm WeatherDisplay:10.37 W/m2 RA
12:40 -2.9 °F /  -19.4 °C -3.8 °F /  -19.9 °C 1004.3in /  34005.6hPa South 3.4mph /  5.5km/h 14.8mph /  23.8km/h 94% 1.5in /  38.1mm WeatherDisplay:10.37 W/m2 RA
12:45 -2.9 °F /  -19.4 °C -3.7 °F /  -19.8 °C 1003.9in /  33992.1hPa ESE 7.1mph /  11.4km/h 14.8mph /  23.8km/h 94% 1.5in /  38.1mm WeatherDisplay:10.37 W/m2 RA
12:50 -2.9 °F /  -19.4 °C -3.7 °F /  -19.8 °C 1003.9in /  33992.1hPa South 2.4mph /  3.9km/h 5.6mph /  9km/h 94% 1.5in /  38.1mm WeatherDisplay:10.37 W/m2 RA
12:55 -2.9 °F /  -19.4 °C -3.7 °F /  -19.8 °C 1003.9in /  33992.1hPa SSW 3.4mph /  5.5km/h 14.5mph /  23.3km/h 94% 1.5in /  38.1mm WeatherDisplay:10.37 W/m2 RA
13:00 -2.9 °F /  -19.4 °C -3.7 °F /  -19.8 °C 1003.9in /  33992.1hPa ENE 6.6mph /  10.6km/h 16.7mph /  26.9km/h 94% 1.5in /  38.1mm WeatherDisplay:10.37 W/m2 RA
13:05 -2.8 °F /  -19.3 °C -3.7 °F /  -19.8 °C 1003.9in /  33992.1hPa South 9.3mph /  15km/h 18.5mph /  29.8km/h 94% 1.5in /  38.1mm WeatherDisplay:10.37 W/m2 RA
13:10 -2.8 °F /  -19.3 °C -3.7 °F /  -19.8 °C 1003.9in /  33992.1hPa SSE 4.3mph /  6.9km/h 4.8mph /  7.7km/h 94% 1.5in /  38.1mm WeatherDisplay:10.37 W/m2 RA
13:15 -2.8 °F /  -19.3 °C -3.6 °F /  -19.8 °C 1003.6in /  33981.9hPa ESE 3.4mph /  5.5km/h 14.8mph /  23.8km/h 94% 1.5in /  38.1mm WeatherDisplay:10.37 W/m2 RA
13:20 -2.7 °F /  -19.3 °C -3.6 °F /  -19.8 °C 1003.6in /  33981.9hPa ESE 6.3mph /  10.1km/h 18.5mph /  29.8km/h 94% 1.5in /  38.1mm WeatherDisplay:10.37 W/m2 RA
13:25 -2.7 °F /  -19.3 °C -3.6 °F /  -19.8 °C 1003.6in /  33981.9hPa SE 4.0mph /  6.4km/h 13.0mph /  20.9km/h 94% 1.5in /  38.1mm WeatherDisplay:10.37 W/m2 RA
13:30 -2.7 °F /  -19.3 °C -3.6 °F /  -19.8 °C 1003.6in /  33981.9hPa SSE 4.3mph /  6.9km/h 9.7mph /  15.6km/h 94% 1.5in /  38.1mm WeatherDisplay:10.37 W/m2 RA
13:35 -2.7 °F /  -19.3 °C -3.6 °F /  -19.8 °C 1003.3in /  33971.7hPa SE 6.0mph /  9.7km/h 14.8mph /  23.8km/h 94% 1.5in /  38.1mm WeatherDisplay:10.37 W/m2 FEW
13:40 -2.7 °F /  -19.3 °C -3.6 °F /  -19.8 °C 1003.3in /  33971.7hPa SE 5.0mph /  8km/h 13.0mph /  20.9km/h 94% 1.5in /  38.1mm WeatherDisplay:10.37 W/m2 RA
13:45 -2.7 °F /  -19.3 °C -3.5 °F /  -19.7 °C 1003.3in /  33971.7hPa SSE 2.6mph /  4.2km/h 14.5mph /  23.3km/h 94% 1.5in /  38.1mm WeatherDisplay:10.37 W/m2 RA
13:50 -2.7 °F /  -19.3 °C -3.5 °F /  -19.7 °C 1003.3in /  33971.7hPa South 3.9mph /  6.3km/h 11.1mph /  17.9km/h 94% 1.5in /  38.1mm WeatherDisplay:10.37 W/m2 RA
13:55 -2.7 °F /  -19.3 °C -3.5 °F /  -19.7 °C 1002.9in /  33958.2hPa SW 1.9mph /  3.1km/h 6.4mph /  10.3km/h 94% 1.5in /  38.1mm WeatherDisplay:10.37 W/m2 RA
14:00 -2.6 °F /  -19.2 °C -3.4 °F /  -19.7 °C 1003.3in /  33971.7hPa SSW 1.9mph /  3.1km/h 5.6mph /  9km/h 94% 1.5in /  38.1mm WeatherDisplay:10.37 W/m2 RA
14:05 -2.6 °F /  -19.2 °C -3.4 °F /  -19.7 °C 1002.9in /  33958.2hPa SSW 5.0mph /  8km/h 11.1mph /  17.9km/h 94% 1.5in /  38.1mm WeatherDisplay:10.37 W/m2 RA
14:10 -2.6 °F /  -19.2 °C -3.4 °F /  -19.7 °C 1002.9in /  33958.2hPa South 4.7mph /  7.6km/h 4.8mph /  7.7km/h 94% 1.5in /  38.1mm WeatherDisplay:10.37 W/m2 RA
14:15 -2.6 °F /  -19.2 °C -3.4 °F /  -19.7 °C 1002.6in /  33948hPa SSE 8.0mph /  12.9km/h 8.0mph /  12.9km/h 94% 1.5in /  38.1mm WeatherDisplay:10.37 W/m2 RA
14:20 -2.5 °F /  -19.2 °C -3.3 °F /  -19.6 °C 1002.6in /  33948hPa SSE 0.3mph /  0.5km/h 18.5mph /  29.8km/h 94% 1.3in /  33.02mm WeatherDisplay:10.37 W/m2 RA
14:25 -2.4 °F /  -19.1 °C -3.3 °F /  -19.6 °C 1002.6in /  33948hPa SSE 6.6mph /  10.6km/h 13.0mph /  20.9km/h 94% 1.3in /  33.02mm WeatherDisplay:10.37 W/m2 RA
14:30 -2.4 °F /  -19.1 °C -3.2 °F /  -19.6 °C 1002.3in /  33937.9hPa SSE 3.5mph /  5.6km/h 11.3mph /  18.2km/h 94% 1.3in /  33.02mm WeatherDisplay:10.37 W/m2 RA
14:35 -2.4 °F /  -19.1 °C -3.2 °F /  -19.6 °C 1002.3in /  33937.9hPa SSW 2.1mph /  3.4km/h 5.6mph /  9km/h 94% 1.3in /  33.02mm WeatherDisplay:10.37 W/m2 RA
14:40 -2.3 °F /  -19.1 °C -3.2 °F /  -19.6 °C 1002.3in /  33937.9hPa NE 0.5mph /  0.8km/h 3.7mph /  6km/h 94% 1.3in /  33.02mm WeatherDisplay:10.37 W/m2 RA
14:45 -2.3 °F /  -19.1 °C -3.2 °F /  -19.6 °C 1002.3in /  33937.9hPa SSE 8.5mph /  13.7km/h 13.0mph /  20.9km/h 94% 1.0in /  25.4mm WeatherDisplay:10.37 W/m2 RA
14:50 -2.3 °F /  -19.1 °C -3.1 °F /  -19.5 °C 1002.3in /  33937.9hPa South 5.6mph /  9km/h 13.0mph /  20.9km/h 94% 1.0in /  25.4mm WeatherDisplay:10.37 W/m2 FEW
14:55 -2.3 °F /  -19.1 °C -3.1 °F /  -19.5 °C 1001.9in /  33924.3hPa SSE 8.0mph /  12.9km/h 16.7mph /  26.9km/h 94% 1.0in /  25.4mm WeatherDisplay:10.37 W/m2 RA
15:00 -2.3 °F /  -19.1 °C -3.1 °F /  -19.5 °C 1001.9in /  33924.3hPa South 1.1mph /  1.8km/h 16.7mph /  26.9km/h 94% 1.0in /  25.4mm WeatherDisplay:10.37 W/m2 RA
15:05 -2.2 °F /  -19 °C -3.0 °F /  -19.4 °C 1001.9in /  33924.3hPa SSE 1.4mph /  2.3km/h 7.4mph /  11.9km/h 94% 1.0in /  25.4mm WeatherDisplay:10.37 W/m2 RA
15:15 -2.1 °F /  -18.9 °C -2.9 °F /  -19.4 °C 1001.9in /  33924.3hPa SE 5.6mph /  9km/h 16.7mph /  26.9km/h 94% 0.8in /  20.32mm WeatherDisplay:10.37 W/m2 FEW
15:20 -2.1 °F /  -18.9 °C -2.9 °F /  -19.4 °C 1001.9in /  33924.3hPa SE 1.4mph /  2.3km/h 14.5mph /  23.3km/h 94% 0.8in /  20.32mm WeatherDisplay:10.37 W/m2 FEW
15:25 -1.9 °F /  -18.8 °C -2.8 °F /  -19.3 °C 1001.9in /  33924.3hPa SE 4.3mph /  6.9km/h 11.1mph /  17.9km/h 94% 0.8in /  20.32mm WeatherDisplay:10.37 W/m2 FEW
15:30 -1.8 °F /  -18.8 °C -2.7 °F /  -19.3 °C 1001.9in /  33924.3hPa Calm   16.7mph /  26.9km/h 94% 0.5in /  12.7mm WeatherDisplay:10.37 W/m2 FEW
15:35 -1.8 °F /  -18.8 °C -2.8 °F /  -19.3 °C 1001.9in /  33924.3hPa South 5.3mph /  8.5km/h 11.1mph /  17.9km/h 93% 0.5in /  12.7mm WeatherDisplay:10.37 W/m2 FEW
15:40 -1.7 °F /  -18.7 °C -2.5 °F /  -19.2 °C 1001.9in /  33924.3hPa SSE 3.9mph /  6.3km/h 11.1mph /  17.9km/h 94% 0.5in /  12.7mm WeatherDisplay:10.37 W/m2 FEW
15:45 -1.6 °F /  -18.7 °C -2.4 °F /  -19.1 °C 1001.9in /  33924.3hPa SW 4.3mph /  6.9km/h 13.0mph /  20.9km/h 94% 0.5in /  12.7mm WeatherDisplay:10.37 W/m2 FEW
15:50 -1.4 °F /  -18.6 °C -2.3 °F /  -19.1 °C 1001.9in /  33924.3hPa SSE 3.1mph /  5km/h 6.4mph /  10.3km/h 94% 0.5in /  12.7mm WeatherDisplay:10.37 W/m2 FEW
15:55 -1.3 °F /  -18.5 °C -2.2 °F /  -19 °C 1001.9in /  33924.3hPa North 1.3mph /  2.1km/h 7.4mph /  11.9km/h 94% 0.3in /  7.62mm WeatherDisplay:10.37 W/m2 FEW
16:00 -1.3 °F /  -18.5 °C -2.1 °F /  -18.9 °C 1001.9in /  33924.3hPa SSE 3.5mph /  5.6km/h 7.4mph /  11.9km/h 94% 0.3in /  7.62mm WeatherDisplay:10.37 W/m2 FEW
16:05 -1.1 °F /  -18.4 °C -2.1 °F /  -18.9 °C 1001.9in /  33924.3hPa SSE 5.1mph /  8.2km/h 7.4mph /  11.9km/h 93% 0.0in /  0mm WeatherDisplay:10.37 W/m2 FEW
16:10 -1.1 °F /  -18.4 °C -1.9 °F /  -18.8 °C 1001.9in /  33924.3hPa SSE 3.2mph /  5.1km/h 11.3mph /  18.2km/h 94% 0.0in /  0mm WeatherDisplay:10.37 W/m2 FEW
16:15 -0.9 °F /  -18.3 °C -1.9 °F /  -18.8 °C 1001.9in /  33924.3hPa NNE 1.4mph /  2.3km/h 7.4mph /  11.9km/h 93% 0.0in /  0mm WeatherDisplay:10.37 W/m2 FEW
16:20 -0.8 °F /  -18.2 °C -1.8 °F /  -18.8 °C 1001.9in /  33924.3hPa South 5.0mph /  8km/h 9.3mph /  15km/h 93% 0.0in /  0mm WeatherDisplay:10.37 W/m2 FEW
16:25 -0.7 °F /  -18.2 °C -1.7 °F /  -18.7 °C 1001.9in /  33924.3hPa North 0.6mph /  1km/h 3.7mph /  6km/h 93% 0.0in /  0mm WeatherDisplay:10.37 W/m2 FEW
16:30 -0.4 °F /  -18 °C -1.4 °F /  -18.6 °C 1001.9in /  33924.3hPa South 5.1mph /  8.2km/h 5.6mph /  9km/h 93% 0.3in /  7.62mm WeatherDisplay:10.37 W/m2 RA
16:35 -0.3 °F /  -17.9 °C -1.3 °F /  -18.5 °C 1001.9in /  33924.3hPa South 1.0mph /  1.6km/h 3.7mph /  6km/h 93% 0.3in /  7.62mm WeatherDisplay:10.37 W/m2 RA
16:40 -0.1 °F /  -17.8 °C -1.1 °F /  -18.4 °C 1001.9in /  33924.3hPa SW 1.9mph /  3.1km/h 9.3mph /  15km/h 93% 0.3in /  7.62mm WeatherDisplay:10.37 W/m2 FEW
16:50 0.2 °F /  -17.7 °C -0.8 °F /  -18.2 °C 1001.9in /  33924.3hPa SE 3.2mph /  5.1km/h 9.3mph /  15km/h 93% 0.3in /  7.62mm WeatherDisplay:10.37 W/m2 FEW
16:55 0.2 °F /  -17.7 °C -0.8 °F /  -18.2 °C 1001.6in /  33914.2hPa SSW 1.4mph /  2.3km/h 5.6mph /  9km/h 93% 0.3in /  7.62mm WeatherDisplay:10.37 W/m2 FEW
17:00 0.2 °F /  -17.7 °C -0.8 °F /  -18.2 °C 1001.6in /  33914.2hPa Calm     93% 0.3in /  7.62mm WeatherDisplay:10.37 W/m2 FEW
17:10 0.3 °F /  -17.6 °C -0.7 °F /  -18.2 °C 1001.6in /  33914.2hPa SSE 0.5mph /  0.8km/h 5.6mph /  9km/h 93% 0.3in /  7.62mm WeatherDisplay:10.37 W/m2 FEW
17:15 0.3 °F /  -17.6 °C -0.7 °F /  -18.2 °C 1001.6in /  33914.2hPa Calm     93% 0.3in /  7.62mm WeatherDisplay:10.37 W/m2 FEW
17:20 0.3 °F /  -17.6 °C -0.7 °F /  -18.2 °C 1001.6in /  33914.2hPa ESE 2.3mph /  3.7km/h 4.8mph /  7.7km/h 93% 0.3in /  7.62mm WeatherDisplay:10.37 W/m2 FEW
17:25 0.4 °F /  -17.6 °C -0.6 °F /  -18.1 °C 1001.6in /  33914.2hPa SSE 0.3mph /  0.5km/h 3.7mph /  6km/h 93% 0.3in /  7.62mm WeatherDisplay:10.37 W/m2 FEW
17:30 0.4 °F /  -17.6 °C -0.6 °F /  -18.1 °C 1001.6in /  33914.2hPa South 1.6mph /  2.6km/h 3.7mph /  6km/h 93% 0.0in /  0mm WeatherDisplay:10.37 W/m2 FEW
17:35 0.4 °F /  -17.6 °C -0.6 °F /  -18.1 °C 1001.6in /  33914.2hPa Calm     93% 0.0in /  0mm WeatherDisplay:10.37 W/m2 FEW
17:40 0.4 °F /  -17.6 °C -0.6 °F /  -18.1 °C 1001.6in /  33914.2hPa Calm     93% 0.0in /  0mm WeatherDisplay:10.37 W/m2 FEW
17:45 0.4 °F /  -17.6 °C -0.6 °F /  -18.1 °C 1001.6in /  33914.2hPa SE 1.4mph /  2.3km/h   93% 0.0in /  0mm WeatherDisplay:10.37 W/m2 FEW
17:50 0.4 °F /  -17.6 °C -0.6 °F /  -18.1 °C 1001.6in /  33914.2hPa Calm     93% 0.0in /  0mm WeatherDisplay:10.37 W/m2 FEW
17:55 0.5 °F /  -17.5 °C -0.5 °F /  -18.1 °C 1001.6in /  33914.2hPa Calm   5.6mph /  9km/h 93% 0.0in /  0mm WeatherDisplay:10.37 W/m2 FEW
18:00 0.6 °F /  -17.4 °C -0.4 °F /  -18 °C 1001.6in /  33914.2hPa Calm   1.9mph /  3.1km/h 93% 0.0in /  0mm WeatherDisplay:10.37 W/m2 FEW
18:05 0.6 °F /  -17.4 °C -0.3 °F /  -17.9 °C 1001.6in /  33914.2hPa Calm     94% 0.0in /  0mm WeatherDisplay:10.37 W/m2 FEW
18:10 0.6 °F /  -17.4 °C -0.2 °F /  -17.9 °C 1001.6in /  33914.2hPa Calm     94% 0.0in /  0mm WeatherDisplay:10.37 W/m2 FEW
18:15 0.6 °F /  -17.4 °C -0.2 °F /  -17.9 °C 1001.9in /  33924.3hPa Calm   1.6mph /  2.6km/h 94% 0.0in /  0mm WeatherDisplay:10.37 W/m2 FEW
18:20 0.7 °F /  -17.4 °C -0.1 °F /  -17.8 °C 1001.6in /  33914.2hPa SSW 1.1mph /  1.8km/h 5.6mph /  9km/h 94% 0.0in /  0mm WeatherDisplay:10.37 W/m2 FEW
18:25 0.8 °F /  -17.3 °C -0.1 °F /  -17.8 °C 1001.9in /  33924.3hPa Calm     94% 0.0in /  0mm WeatherDisplay:10.37 W/m2 FEW
18:30 0.9 °F /  -17.3 °C 0.1 °F /  -17.7 °C 1001.6in /  33914.2hPa SW 4.7mph /  7.6km/h 7.4mph /  11.9km/h 94% 0.0in /  0mm WeatherDisplay:10.37 W/m2 FEW
18:35 1.0 °F /  -17.2 °C 0.2 °F /  -17.7 °C 1001.6in /  33914.2hPa SSW 1.6mph /  2.6km/h 9.3mph /  15km/h 94% 0.0in /  0mm WeatherDisplay:10.37 W/m2 FEW
18:40 1.1 °F /  -17.2 °C 0.2 °F /  -17.7 °C 1001.6in /  33914.2hPa South 0.2mph /  0.3km/h 1.9mph /  3.1km/h 94% 0.0in /  0mm WeatherDisplay:10.37 W/m2 FEW
18:45 1.1 °F /  -17.2 °C 0.2 °F /  -17.7 °C 1001.6in /  33914.2hPa Calm     94% 0.0in /  0mm WeatherDisplay:10.37 W/m2 FEW
18:50 1.0 °F /  -17.2 °C 0.2 °F /  -17.7 °C 1001.6in /  33914.2hPa SSW 1.8mph /  2.9km/h   94% 0.0in /  0mm WeatherDisplay:10.37 W/m2 FEW
19:00 1.2 °F /  -17.1 °C 0.3 °F /  -17.6 °C 1001.6in /  33914.2hPa SSE 3.7mph /  6km/h 5.6mph /  9km/h 94% 0.0in /  0mm WeatherDisplay:10.37 W/m2 FEW
19:10 1.2 °F /  -17.1 °C 0.3 °F /  -17.6 °C 1001.6in /  33914.2hPa SSW 0.5mph /  0.8km/h 3.7mph /  6km/h 94% 0.0in /  0mm WeatherDisplay:10.37 W/m2 FEW
19:15 1.4 °F /  -17 °C 0.6 °F /  -17.4 °C 1001.6in /  33914.2hPa SW 1.3mph /  2.1km/h 8.0mph /  12.9km/h 94% 0.0in /  0mm WeatherDisplay:10.37 W/m2 FEW
19:20 1.5 °F /  -16.9 °C 0.7 °F /  -17.4 °C 1001.6in /  33914.2hPa South 3.2mph /  5.1km/h 9.3mph /  15km/h 94% 0.0in /  0mm WeatherDisplay:10.37 W/m2 FEW
19:25 1.7 °F /  -16.8 °C 0.8 °F /  -17.3 °C 1001.6in /  33914.2hPa Calm     94% 0.0in /  0mm WeatherDisplay:10.37 W/m2 FEW
19:30 1.7 °F /  -16.8 °C 0.8 °F /  -17.3 °C 1001.6in /  33914.2hPa South 1.3mph /  2.1km/h 8.0mph /  12.9km/h 94% 0.0in /  0mm WeatherDisplay:10.37 W/m2 FEW
19:35 1.6 °F /  -16.9 °C 0.7 °F /  -17.4 °C 1001.6in /  33914.2hPa SSE 1.9mph /  3.1km/h 14.8mph /  23.8km/h 94% 0.0in /  0mm WeatherDisplay:10.37 W/m2 FEW
19:40 1.7 °F /  -16.8 °C 0.8 °F /  -17.3 °C 1001.6in /  33914.2hPa Calm     94% 0.0in /  0mm WeatherDisplay:10.37 W/m2 FEW
19:45 1.7 °F /  -16.8 °C 0.8 °F /  -17.3 °C 1001.6in /  33914.2hPa Calm   3.7mph /  6km/h 94% 0.0in /  0mm WeatherDisplay:10.37 W/m2 FEW
19:50 1.8 °F /  -16.8 °C 0.9 °F /  -17.3 °C 1001.6in /  33914.2hPa SSE 0.3mph /  0.5km/h 18.5mph /  29.8km/h 94% 0.0in /  0mm WeatherDisplay:10.37 W/m2 FEW
19:55 1.8 °F /  -16.8 °C 0.9 °F /  -17.3 °C 1001.6in /  33914.2hPa SSE 1.6mph /  2.6km/h 1.9mph /  3.1km/h 94% 0.0in /  0mm WeatherDisplay:10.37 W/m2 FEW
20:00 1.9 °F /  -16.7 °C 1.1 °F /  -17.2 °C 1001.2in /  33900.6hPa WSW 2.6mph /  4.2km/h 13.0mph /  20.9km/h 94% 0.0in /  0mm WeatherDisplay:10.37 W/m2 FEW
20:05 2.0 °F /  -16.7 °C 1.1 °F /  -17.2 °C 1001.6in /  33914.2hPa SSE 0.3mph /  0.5km/h 3.7mph /  6km/h 94% 0.0in /  0mm WeatherDisplay:10.37 W/m2 FEW
20:15 2.1 °F /  -16.6 °C 1.2 °F /  -17.1 °C 1001.6in /  33914.2hPa SW 0.6mph /  1km/h 13.0mph /  20.9km/h 94% 0.0in /  0mm WeatherDisplay:10.37 W/m2 FEW
20:20 1.9 °F /  -16.7 °C 1.1 °F /  -17.2 °C 1001.6in /  33914.2hPa SSE 1.9mph /  3.1km/h 5.6mph /  9km/h 94% 0.0in /  0mm WeatherDisplay:10.37 W/m2 FEW
20:25 2.0 °F /  -16.7 °C 1.1 °F /  -17.2 °C 1001.6in /  33914.2hPa WNW 0.2mph /  0.3km/h 3.7mph /  6km/h 94% 0.0in /  0mm WeatherDisplay:10.37 W/m2 FEW
20:30 2.1 °F /  -16.6 °C 1.2 °F /  -17.1 °C 1001.6in /  33914.2hPa South 2.3mph /  3.7km/h 13.0mph /  20.9km/h 94% 0.0in /  0mm WeatherDisplay:10.37 W/m2 FEW
20:35 2.2 °F /  -16.6 °C 1.3 °F /  -17.1 °C 1001.6in /  33914.2hPa South 4.0mph /  6.4km/h 13.0mph /  20.9km/h 94% 0.0in /  0mm WeatherDisplay:10.37 W/m2 FEW
20:40 2.2 °F /  -16.6 °C 1.3 °F /  -17.1 °C 1001.6in /  33914.2hPa NW 4.5mph /  7.2km/h 9.3mph /  15km/h 94% 0.0in /  0mm WeatherDisplay:10.37 W/m2 FEW
20:45 2.3 °F /  -16.5 °C 1.4 °F /  -17 °C 1001.6in /  33914.2hPa NNW 2.1mph /  3.4km/h 14.8mph /  23.8km/h 94% 0.0in /  0mm WeatherDisplay:10.37 W/m2 FEW
20:50 2.3 °F /  -16.5 °C 1.4 °F /  -17 °C 1001.2in /  33900.6hPa West 5.1mph /  8.2km/h 18.5mph /  29.8km/h 94% 0.0in /  0mm WeatherDisplay:10.37 W/m2 FEW
20:55 2.4 °F /  -16.4 °C 1.5 °F /  -16.9 °C 1001.2in /  33900.6hPa South 7.9mph /  12.7km/h 18.5mph /  29.8km/h 94% 0.0in /  0mm WeatherDisplay:10.37 W/m2 FEW
21:00 2.4 °F /  -16.4 °C 1.6 °F /  -16.9 °C 1001.2in /  33900.6hPa SSW 3.5mph /  5.6km/h 7.4mph /  11.9km/h 94% 0.0in /  0mm WeatherDisplay:10.37 W/m2 FEW
21:05 2.4 °F /  -16.4 °C 1.6 °F /  -16.9 °C 1001.2in /  33900.6hPa ESE 1.4mph /  2.3km/h 5.6mph /  9km/h 94% 0.0in /  0mm WeatherDisplay:10.37 W/m2 FEW
21:10 2.4 °F /  -16.4 °C 1.6 °F /  -16.9 °C 1001.2in /  33900.6hPa West 3.1mph /  5km/h 9.3mph /  15km/h 94% 0.0in /  0mm WeatherDisplay:10.37 W/m2 FEW
21:15 2.4 °F /  -16.4 °C 1.6 °F /  -16.9 °C 1001.2in /  33900.6hPa NNW 3.1mph /  5km/h 9.3mph /  15km/h 94% 0.0in /  0mm WeatherDisplay:10.37 W/m2 FEW
21:20 2.5 °F /  -16.4 °C 1.8 °F /  -16.8 °C 1001.2in /  33900.6hPa SE 3.2mph /  5.1km/h 9.3mph /  15km/h 95% 0.0in /  0mm WeatherDisplay:10.37 W/m2 FEW
21:25 2.4 °F /  -16.4 °C 1.6 °F /  -16.9 °C 1001.2in /  33900.6hPa SSE 4.7mph /  7.6km/h 18.5mph /  29.8km/h 94% 0.0in /  0mm WeatherDisplay:10.37 W/m2 FEW
21:30 2.5 °F /  -16.4 °C 1.8 °F /  -16.8 °C 1001.2in /  33900.6hPa SSW 6.1mph /  9.8km/h 14.8mph /  23.8km/h 95% 0.0in /  0mm WeatherDisplay:10.37 W/m2 FEW
21:35 2.6 °F /  -16.3 °C 1.8 °F /  -16.8 °C 1001.2in /  33900.6hPa SSW 2.4mph /  3.9km/h 9.3mph /  15km/h 95% 0.0in /  0mm WeatherDisplay:10.37 W/m2 FEW
21:40 2.5 °F /  -16.4 °C 1.8 °F /  -16.8 °C 1001.2in /  33900.6hPa SSW 1.4mph /  2.3km/h 6.4mph /  10.3km/h 95% 0.0in /  0mm WeatherDisplay:10.37 W/m2 FEW
21:45 2.6 °F /  -16.3 °C 1.8 °F /  -16.8 °C 1001.2in /  33900.6hPa SSW 4.5mph /  7.2km/h 9.3mph /  15km/h 95% 0.0in /  0mm WeatherDisplay:10.37 W/m2 FEW
21:50 2.6 °F /  -16.3 °C 1.8 °F /  -16.8 °C 1001.2in /  33900.6hPa SSW 2.4mph /  3.9km/h 13.0mph /  20.9km/h 95% 0.0in /  0mm WeatherDisplay:10.37 W/m2 FEW
21:55 2.6 °F /  -16.3 °C 1.8 °F /  -16.8 °C 1000.9in /  33890.5hPa WSW 4.7mph /  7.6km/h 16.7mph /  26.9km/h 95% 0.0in /  0mm WeatherDisplay:10.37 W/m2 FEW
22:05 2.6 °F /  -16.3 °C 1.8 °F /  -16.8 °C 1000.9in /  33890.5hPa South 0.3mph /  0.5km/h 3.7mph /  6km/h 95% 0.0in /  0mm WeatherDisplay:10.37 W/m2 FEW
22:10 2.6 °F /  -16.3 °C 1.8 °F /  -16.8 °C 1000.9in /  33890.5hPa South 3.2mph /  5.1km/h 6.4mph /  10.3km/h 95% 0.0in /  0mm WeatherDisplay:10.37 W/m2 FEW
22:15 2.6 °F /  -16.3 °C 1.8 °F /  -16.8 °C 1000.9in /  33890.5hPa SW 2.7mph /  4.3km/h 16.1mph /  25.9km/h 95% 0.0in /  0mm WeatherDisplay:10.37 W/m2 FEW
22:25 2.5 °F /  -16.4 °C 1.8 °F /  -16.8 °C 1000.9in /  33890.5hPa South 0.2mph /  0.3km/h 9.3mph /  15km/h 95% 0.0in /  0mm WeatherDisplay:10.37 W/m2 FEW
22:35 2.6 °F /  -16.3 °C 1.9 °F /  -16.7 °C 1000.6in /  33880.3hPa SSW 3.1mph /  5km/h 13.0mph /  20.9km/h 95% 0.3in /  7.62mm WeatherDisplay:10.37 W/m2 RA
22:40 2.6 °F /  -16.3 °C 1.8 °F /  -16.8 °C 1000.2in /  33866.8hPa SSW 5.8mph /  9.3km/h 11.3mph /  18.2km/h 95% 0.3in /  7.62mm WeatherDisplay:10.37 W/m2 FEW
22:45 2.5 °F /  -16.4 °C 1.8 °F /  -16.8 °C 999.9in /  33856.6hPa SSW 1.4mph /  2.3km/h 16.7mph /  26.9km/h 95% 0.5in /  12.7mm WeatherDisplay:10.37 W/m2 RA
22:50 2.4 °F /  -16.4 °C 1.6 °F /  -16.9 °C 999.5in /  33843.1hPa South 3.9mph /  6.3km/h 11.3mph /  18.2km/h 94% 0.5in /  12.7mm WeatherDisplay:10.37 W/m2 RA
22:55 2.4 °F /  -16.4 °C 1.5 °F /  -16.9 °C 999.9in /  33856.6hPa SSE 3.9mph /  6.3km/h 11.1mph /  17.9km/h 94% 0.5in /  12.7mm WeatherDisplay:10.37 W/m2 FEW
23:00 2.3 °F /  -16.5 °C 1.4 °F /  -17 °C 999.5in /  33843.1hPa South 2.9mph /  4.7km/h 9.3mph /  15km/h 94% 0.5in /  12.7mm WeatherDisplay:10.37 W/m2 FEW
23:05 2.3 °F /  -16.5 °C 1.4 °F /  -17 °C 999.9in /  33856.6hPa SSE 0.8mph /  1.3km/h 7.4mph /  11.9km/h 94% 0.5in /  12.7mm WeatherDisplay:10.37 W/m2 FEW
23:10 2.3 °F /  -16.5 °C 1.4 °F /  -17 °C 999.5in /  33843.1hPa South 6.3mph /  10.1km/h 22.2mph /  35.7km/h 94% 0.5in /  12.7mm WeatherDisplay:10.37 W/m2 FEW
23:15 2.3 °F /  -16.5 °C 1.4 °F /  -17 °C 999.5in /  33843.1hPa SSE 5.6mph /  9km/h 20.4mph /  32.8km/h 94% 0.5in /  12.7mm WeatherDisplay:10.37 W/m2 FEW
23:20 2.4 °F /  -16.4 °C 1.5 °F /  -16.9 °C 999.5in /  33843.1hPa SE 4.3mph /  6.9km/h 11.3mph /  18.2km/h 94% 0.5in /  12.7mm WeatherDisplay:10.37 W/m2 FEW
23:25 2.4 °F /  -16.4 °C 1.5 °F /  -16.9 °C 999.2in /  33832.9hPa ESE 13.2mph /  21.2km/h 18.5mph /  29.8km/h 94% 0.5in /  12.7mm WeatherDisplay:10.37 W/m2 FEW
23:30 2.4 °F /  -16.4 °C 1.7 °F /  -16.8 °C 998.9in /  33822.8hPa South 5.3mph /  8.5km/h 18.5mph /  29.8km/h 95% 0.3in /  7.62mm WeatherDisplay:10.37 W/m2 FEW
23:35 2.4 °F /  -16.4 °C 1.5 °F /  -16.9 °C 998.9in /  33822.8hPa SE 5.1mph /  8.2km/h 24.1mph /  38.8km/h 94% 0.3in /  7.62mm WeatherDisplay:10.37 W/m2 FEW
23:40 2.4 °F /  -16.4 °C 1.5 °F /  -16.9 °C 998.9in /  33822.8hPa South 2.1mph /  3.4km/h 3.7mph /  6km/h 94% 0.3in /  7.62mm WeatherDisplay:10.37 W/m2 FEW
23:45 2.4 °F /  -16.4 °C 1.6 °F /  -16.9 °C 998.9in /  33822.8hPa West 6.0mph /  9.7km/h 18.5mph /  29.8km/h 94% 0.0in /  0mm WeatherDisplay:10.37 W/m2 FEW
23:50 2.4 °F /  -16.4 °C 1.6 °F /  -16.9 °C 998.5in /  33809.2hPa SE 4.2mph /  6.8km/h 20.4mph /  32.8km/h 94% 0.0in /  0mm WeatherDisplay:10.37 W/m2 FEW
23:55 2.4 °F /  -16.4 °C 1.6 °F /  -16.9 °C 998.5in /  33809.2hPa SE 11.3mph /  18.2km/h 20.9mph /  33.6km/h 94% 0.0in /  0mm WeatherDisplay:10.37 W/m2 FEW
Tuulensuunkaari, Veikkola, Suomi
Compliments of Weather Underground - 2.5 mb